Stafford, NY

12:51 AM EDT on July 29, 2016 (GMT -0400)
West side of Stafford | | Change Station

Elev 922 ft 42.99 °N, 78.11 °W | Updated 10 seconds ago

Mostly Cloudy
Mostly Cloudy
70.9 °F
Feels Like 72 °F
N
0.0
Wind Variable Wind from East
Gusts 0.0 mph

Today
High -- | Low -- °F
--% Chance of Precip.
Yesterday
High -- | Low -- °F
Precip. -- in
Pressure 29.90 in
Visibility 10.0 miles
Clouds Mostly Cloudy 18000 ft
Heat Index 72 °F
Dew Point 64 °F
Humidity 78%
Rainfall 0.00 in
Snow Depth Not available.
6:00 AM 8:36 PM
Waning Crescent, 25% visible
METAR KROC 290354Z 00000KT 10SM BKN180 22/17 A2990 RMK AO2 SLP124 T02170167
Pressure 29.90 in
Visibility 10.0 miles
Clouds Mostly Cloudy 18000 ft
Heat Index 72 °F
Dew Point 64 °F
Humidity 78%
Rainfall 0.00 in
Snow Depth Not available.
6:00 AM 8:36 PM
Waning Crescent, 25% visible
METAR KROC 290354Z 00000KT 10SM BKN180 22/17 A2990 RMK AO2 SLP124 T02170167

10-Day Weather Forecast

Almanac

Astronomy

Jul. 29, 2016 Rise Set
Actual Time
Civil Twilight
Nautical Twilight
Astronomical Twilight
Moon
Length of Visible Light
Length of Day
Tomorrow will be .
, % of the Moon is Illuminated

Today's Extremes

State Highs State Lows

Community

WunderPhotos

Upload Photos

1,928,294 photos uploaded!

WunderBlog® & News

Nearby

Air Quality

  Air Quality AQ Index Pollutant
Not available.

Snow Depth

Station Depth Elevation

Earthquake Activity

City Distance Mag. Time & Date
Minimum magnitude displayed is 2.5.

Coastal Water Temperatures

Place Temperature

Stations

Nearby Weather Stations

Station Location Temp. Windchill Dew Point Humidity Wind Precip. Elev Updated Type
                   

Watches & Warnings

There are currently no watches in effect.